SKW3343 KLAX-KJAC
Flight info
| Callsign | SKW3343 |
|---|---|
| Flight time | N/A |
| Altitude | 31000 |
| Route | ORCKA5 MISEN HAILO Q70 BLIPP Q842 PICHO TCH ELLKK MOSSS DNW JAC |
| Aircraft | E75L/M-SDE3GILORVW/S |
Departure
| Time | 2026-05-06 18:56 |
|---|---|
| Airport | Los Angeles International Airport (KLAX) |
Arrival
| Time | N/A |
|---|---|
| Airport | Jackson Hole Airport (KJAC) |
| Time | Latitude | Longitude | Altitude | Speed | Heading |
|---|---|---|---|---|---|
| 2026-05-06 18:28 | 33.94231 | -118.39354 | 93 ft | 0 kts | 270° |
| 2026-05-06 18:48 | 33.94235 | -118.39328 | 91 ft | 4 kts | 237° |
| 2026-05-06 18:48 | 33.94255 | -118.39315 | 93 ft | 2 kts | 179° |
| 2026-05-06 18:49 | 33.94260 | -118.39315 | 90 ft | 0 kts | 179° |
| 2026-05-06 18:51 | 33.94258 | -118.39315 | 90 ft | 1 kts | 179° |
| 2026-05-06 18:51 | 33.94236 | -118.39315 | 90 ft | 5 kts | 179° |
| 2026-05-06 18:51 | 33.94189 | -118.39314 | 90 ft | 8 kts | 179° |
| 2026-05-06 18:52 | 33.94127 | -118.39316 | 91 ft | 10 kts | 184° |
| 2026-05-06 18:52 | 33.94056 | -118.39312 | 91 ft | 10 kts | 149° |
| 2026-05-06 18:52 | 33.94038 | -118.39229 | 91 ft | 12 kts | 76° |
| 2026-05-06 18:52 | 33.94053 | -118.39127 | 93 ft | 13 kts | 84° |
| 2026-05-06 18:53 | 33.94058 | -118.39009 | 91 ft | 15 kts | 87° |
| 2026-05-06 18:53 | 33.94065 | -118.38880 | 91 ft | 16 kts | 85° |
| 2026-05-06 18:53 | 33.94081 | -118.38741 | 91 ft | 17 kts | 83° |
| 2026-05-06 18:53 | 33.94097 | -118.38590 | 91 ft | 19 kts | 83° |
| 2026-05-06 18:54 | 33.94113 | -118.38429 | 94 ft | 20 kts | 83° |
| 2026-05-06 18:54 | 33.94088 | -118.38337 | 92 ft | 11 kts | 147° |
| 2026-05-06 18:54 | 33.94055 | -118.38265 | 94 ft | 11 kts | 84° |
| 2026-05-06 18:54 | 33.94066 | -118.38162 | 92 ft | 14 kts | 83° |
| 2026-05-06 18:55 | 33.94074 | -118.38036 | 91 ft | 16 kts | 111° |
| 2026-05-06 18:55 | 33.93984 | -118.38018 | 92 ft | 12 kts | 236° |
| 2026-05-06 18:55 | 33.93971 | -118.38155 | 92 ft | 35 kts | 263° |
| 2026-05-06 18:55 | 33.93907 | -118.38769 | 93 ft | 112 kts | 264° |
| 2026-05-06 18:56 | 33.93787 | -118.39950 | 299 ft | 155 kts | 263° |
| 2026-05-06 18:56 | 33.93671 | -118.41207 | 1286 ft | 150 kts | 264° |
| 2026-05-06 18:56 | 33.93562 | -118.42469 | 2163 ft | 157 kts | 264° |
| 2026-05-06 18:56 | 33.93426 | -118.43866 | 2910 ft | 179 kts | 262° |
| 2026-05-06 18:57 | 33.93243 | -118.45414 | 3741 ft | 193 kts | 262° |
| 2026-05-06 18:57 | 33.92944 | -118.47049 | 4554 ft | 208 kts | 251° |
| 2026-05-06 18:57 | 33.92395 | -118.48708 | 5412 ft | 217 kts | 248° |
| 2026-05-06 18:57 | 33.91799 | -118.50402 | 6348 ft | 226 kts | 247° |
| 2026-05-06 18:58 | 33.91136 | -118.52219 | 7214 ft | 241 kts | 238° |
| 2026-05-06 18:58 | 33.89930 | -118.53630 | 8362 ft | 250 kts | 209° |
| 2026-05-06 18:58 | 33.88267 | -118.54280 | 9374 ft | 262 kts | 187° |
| 2026-05-06 18:58 | 33.86420 | -118.54130 | 10434 ft | 273 kts | 165° |
| 2026-05-06 18:59 | 33.84700 | -118.53055 | 11331 ft | 289 kts | 140° |
| 2026-05-06 18:59 | 33.83346 | -118.51214 | 12307 ft | 299 kts | 123° |
| 2026-05-06 18:59 | 33.82473 | -118.48909 | 13255 ft | 309 kts | 105° |
| 2026-05-06 18:59 | 33.82236 | -118.46300 | 14100 ft | 322 kts | 86° |
| 2026-05-06 19:00 | 33.82852 | -118.43681 | 14756 ft | 339 kts | 59° |
| 2026-05-06 19:00 | 33.84485 | -118.41570 | 15418 ft | 351 kts | 33° |
| 2026-05-06 19:00 | 33.86708 | -118.40431 | 16599 ft | 346 kts | 12° |
| 2026-05-06 19:00 | 33.89015 | -118.39839 | 17992 ft | 333 kts | 11° |
| 2026-05-06 19:01 | 33.91252 | -118.39303 | 19161 ft | 329 kts | 11° |
| 2026-05-06 19:01 | 33.93487 | -118.38457 | 19581 ft | 347 kts | 27° |
| 2026-05-06 19:01 | 33.95471 | -118.36781 | 20228 ft | 352 kts | 41° |
| 2026-05-06 19:01 | 33.97282 | -118.34757 | 20724 ft | 359 kts | 44° |
| 2026-05-06 19:02 | 33.99024 | -118.32553 | 21148 ft | 367 kts | 47° |
| 2026-05-06 19:02 | 34.00724 | -118.30230 | 21617 ft | 372 kts | 49° |
| 2026-05-06 19:02 | 34.02356 | -118.27779 | 22056 ft | 378 kts | 54° |
| 2026-05-06 19:02 | 34.03809 | -118.25119 | 22498 ft | 382 kts | 57° |
| 2026-05-06 19:03 | 34.05258 | -118.22405 | 22945 ft | 386 kts | 57° |
| 2026-05-06 19:03 | 34.06742 | -118.19689 | 23419 ft | 389 kts | 56° |
| 2026-05-06 19:03 | 34.08257 | -118.16970 | 23890 ft | 392 kts | 56° |
| 2026-05-06 19:03 | 34.09790 | -118.14239 | 24354 ft | 394 kts | 56° |
| 2026-05-06 19:04 | 34.11334 | -118.11494 | 24814 ft | 397 kts | 56° |
| 2026-05-06 19:04 | 34.12891 | -118.08726 | 25260 ft | 400 kts | 56° |
| 2026-05-06 19:04 | 34.14459 | -118.05944 | 25687 ft | 402 kts | 55° |
| 2026-05-06 19:04 | 34.16041 | -118.03151 | 26092 ft | 405 kts | 55° |
| 2026-05-06 19:05 | 34.17634 | -118.00332 | 26501 ft | 407 kts | 55° |
| 2026-05-06 19:05 | 34.19233 | -117.97496 | 26912 ft | 410 kts | 56° |
| 2026-05-06 19:05 | 34.20842 | -117.94636 | 27297 ft | 413 kts | 56° |
| 2026-05-06 19:05 | 34.22457 | -117.91760 | 27680 ft | 415 kts | 56° |
| 2026-05-06 19:06 | 34.24081 | -117.88863 | 28045 ft | 417 kts | 56° |
| 2026-05-06 19:06 | 34.25714 | -117.85951 | 28394 ft | 420 kts | 56° |
| 2026-05-06 19:06 | 34.27355 | -117.83023 | 28733 ft | 422 kts | 56° |
| 2026-05-06 19:06 | 34.29005 | -117.80075 | 29058 ft | 424 kts | 56° |
| 2026-05-06 19:07 | 34.30639 | -117.77153 | 29358 ft | 426 kts | 56° |
| 2026-05-06 19:07 | 34.32325 | -117.74136 | 29657 ft | 428 kts | 56° |
| 2026-05-06 19:07 | 34.33995 | -117.71145 | 29942 ft | 430 kts | 56° |
| 2026-05-06 19:07 | 34.35647 | -117.68175 | 30210 ft | 432 kts | 55° |
| 2026-05-06 19:08 | 34.37395 | -117.65211 | 30458 ft | 434 kts | 53° |
| 2026-05-06 19:08 | 34.39180 | -117.62260 | 30705 ft | 435 kts | 53° |
| 2026-05-06 19:08 | 34.40966 | -117.59295 | 31027 ft | 435 kts | 53° |
| 2026-05-06 19:09 | 34.44586 | -117.53246 | 31026 ft | 451 kts | 54° |
| 2026-05-06 19:09 | 34.48326 | -117.46966 | 30925 ft | 466 kts | 54° |
| 2026-05-06 19:10 | 34.52141 | -117.40538 | 30920 ft | 471 kts | 54° |
| 2026-05-06 19:10 | 34.55971 | -117.34086 | 30925 ft | 472 kts | 54° |
| 2026-05-06 19:11 | 34.59803 | -117.27615 | 30925 ft | 472 kts | 54° |
| 2026-05-06 19:11 | 34.63629 | -117.21141 | 30927 ft | 472 kts | 54° |
| 2026-05-06 19:12 | 34.67452 | -117.14659 | 30924 ft | 472 kts | 54° |
| 2026-05-06 19:12 | 34.71274 | -117.08169 | 30927 ft | 472 kts | 54° |
| 2026-05-06 19:13 | 34.75089 | -117.01678 | 30926 ft | 472 kts | 54° |
| 2026-05-06 19:13 | 34.78903 | -116.95176 | 30925 ft | 472 kts | 54° |
| 2026-05-06 19:14 | 34.82714 | -116.88668 | 30928 ft | 472 kts | 54° |
| 2026-05-06 19:14 | 34.86494 | -116.82201 | 30927 ft | 472 kts | 54° |
| 2026-05-06 19:15 | 34.90297 | -116.75684 | 30926 ft | 472 kts | 54° |
| 2026-05-06 19:15 | 34.94460 | -116.69448 | 30935 ft | 472 kts | 46° |
| 2026-05-06 19:16 | 34.98933 | -116.63595 | 30922 ft | 472 kts | 47° |
| 2026-05-06 19:16 | 35.03396 | -116.57725 | 30926 ft | 472 kts | 47° |
| 2026-05-06 19:17 | 35.07852 | -116.51850 | 30925 ft | 472 kts | 47° |
| 2026-05-06 19:17 | 35.12277 | -116.46002 | 30923 ft | 472 kts | 47° |
| 2026-05-06 19:18 | 35.16730 | -116.40109 | 30928 ft | 472 kts | 47° |
| 2026-05-06 19:18 | 35.21176 | -116.34212 | 30927 ft | 472 kts | 47° |
| 2026-05-06 19:19 | 35.25620 | -116.28307 | 30926 ft | 472 kts | 47° |
| 2026-05-06 19:19 | 35.30065 | -116.22392 | 30928 ft | 472 kts | 47° |
| 2026-05-06 19:20 | 35.34501 | -116.16479 | 30930 ft | 472 kts | 47° |
| 2026-05-06 19:20 | 35.38939 | -116.10551 | 30927 ft | 472 kts | 47° |
| 2026-05-06 19:21 | 35.43372 | -116.04620 | 30926 ft | 472 kts | 47° |
| 2026-05-06 19:21 | 35.47802 | -115.98684 | 30926 ft | 472 kts | 47° |
| 2026-05-06 19:22 | 35.52230 | -115.92739 | 30926 ft | 472 kts | 47° |
| 2026-05-06 19:22 | 35.56653 | -115.86789 | 30929 ft | 472 kts | 47° |
| 2026-05-06 19:23 | 35.61076 | -115.80830 | 30929 ft | 472 kts | 47° |
| 2026-05-06 19:23 | 35.65483 | -115.74849 | 30930 ft | 472 kts | 48° |
| 2026-05-06 19:24 | 35.69852 | -115.68831 | 30929 ft | 472 kts | 48° |
| 2026-05-06 19:24 | 35.74225 | -115.62808 | 30928 ft | 472 kts | 48° |
| 2026-05-06 19:25 | 35.78594 | -115.56781 | 30929 ft | 472 kts | 48° |
| 2026-05-06 19:25 | 35.82961 | -115.50746 | 30927 ft | 472 kts | 48° |
| 2026-05-06 19:26 | 35.87327 | -115.44703 | 30929 ft | 472 kts | 48° |
| 2026-05-06 19:26 | 35.91689 | -115.38657 | 30930 ft | 472 kts | 48° |
| 2026-05-06 19:27 | 35.96047 | -115.32603 | 30928 ft | 472 kts | 48° |
| 2026-05-06 19:27 | 36.00373 | -115.26583 | 30925 ft | 472 kts | 48° |
| 2026-05-06 19:28 | 36.04725 | -115.20518 | 30928 ft | 472 kts | 48° |
| 2026-05-06 19:28 | 36.09222 | -115.14622 | 30935 ft | 471 kts | 42° |
| 2026-05-06 19:29 | 36.14169 | -115.09295 | 30924 ft | 472 kts | 40° |
| 2026-05-06 19:29 | 36.19132 | -115.03989 | 30927 ft | 471 kts | 40° |
| 2026-05-06 19:30 | 36.24088 | -114.98663 | 30930 ft | 472 kts | 40° |
| 2026-05-06 19:30 | 36.29039 | -114.93328 | 30924 ft | 471 kts | 40° |
| 2026-05-06 19:31 | 36.33986 | -114.87985 | 30928 ft | 471 kts | 40° |
| 2026-05-06 19:31 | 36.41401 | -114.79962 | 30930 ft | 471 kts | 41° |
| 2026-05-06 19:32 | 36.45500 | -114.75499 | 30926 ft | 472 kts | 41° |
| 2026-05-06 19:32 | 36.50430 | -114.70118 | 30926 ft | 471 kts | 41° |
| 2026-05-06 19:33 | 36.55355 | -114.64733 | 30928 ft | 472 kts | 41° |
| 2026-05-06 19:33 | 36.60278 | -114.59342 | 30932 ft | 472 kts | 41° |
| 2026-05-06 19:34 | 36.65202 | -114.53941 | 30929 ft | 471 kts | 41° |
| 2026-05-06 19:34 | 36.70118 | -114.48538 | 30928 ft | 471 kts | 40° |
| 2026-05-06 19:35 | 36.75535 | -114.43950 | 30939 ft | 472 kts | 31° |
| 2026-05-06 19:35 | 36.81095 | -114.39619 | 30926 ft | 471 kts | 32° |
| 2026-05-06 19:36 | 36.86650 | -114.35277 | 30929 ft | 471 kts | 32° |
| 2026-05-06 19:36 | 36.92206 | -114.30923 | 30921 ft | 471 kts | 32° |
| 2026-05-06 19:37 | 36.97755 | -114.26565 | 30924 ft | 471 kts | 32° |
| 2026-05-06 19:37 | 37.03303 | -114.22200 | 30923 ft | 471 kts | 32° |
| 2026-05-06 19:38 | 37.08848 | -114.17831 | 30930 ft | 471 kts | 32° |
| 2026-05-06 19:38 | 37.14392 | -114.13454 | 30927 ft | 471 kts | 32° |
| 2026-05-06 19:39 | 37.19937 | -114.09068 | 30925 ft | 471 kts | 32° |
| 2026-05-06 19:39 | 37.25481 | -114.04676 | 30930 ft | 471 kts | 32° |
| 2026-05-06 19:40 | 37.31017 | -114.00281 | 30929 ft | 471 kts | 32° |
| 2026-05-06 19:40 | 37.36556 | -113.95877 | 30932 ft | 471 kts | 32° |
| 2026-05-06 19:41 | 37.42096 | -113.91465 | 30928 ft | 471 kts | 32° |
| 2026-05-06 19:41 | 37.47628 | -113.87049 | 30929 ft | 471 kts | 32° |
| 2026-05-06 19:42 | 37.53128 | -113.82653 | 30929 ft | 471 kts | 32° |
| 2026-05-06 19:42 | 37.58659 | -113.78225 | 30930 ft | 471 kts | 32° |
| 2026-05-06 19:43 | 37.64225 | -113.73759 | 30927 ft | 471 kts | 32° |
| 2026-05-06 19:43 | 37.69718 | -113.69346 | 30931 ft | 471 kts | 32° |
| 2026-05-06 19:44 | 37.75244 | -113.64896 | 30924 ft | 471 kts | 32° |
| 2026-05-06 19:44 | 37.80767 | -113.60442 | 30928 ft | 471 kts | 32° |
| 2026-05-06 19:45 | 37.86292 | -113.55978 | 30927 ft | 471 kts | 32° |
| 2026-05-06 19:45 | 37.91815 | -113.51509 | 30927 ft | 471 kts | 32° |
| 2026-05-06 19:46 | 37.94722 | -113.49617 | 30928 ft | 470 kts | 21° |
| 2026-05-06 19:46 | 37.97801 | -113.48220 | 30952 ft | 471 kts | 18° |
| 2026-05-06 19:46 | 38.03996 | -113.45527 | 30930 ft | 470 kts | 18° |
| 2026-05-06 19:47 | 38.10183 | -113.42815 | 30928 ft | 470 kts | 19° |
| 2026-05-06 19:47 | 38.16365 | -113.40094 | 30931 ft | 470 kts | 19° |
| 2026-05-06 19:48 | 38.22549 | -113.37367 | 30922 ft | 470 kts | 19° |
| 2026-05-06 19:48 | 38.28729 | -113.34634 | 30925 ft | 470 kts | 19° |
| 2026-05-06 19:49 | 38.34912 | -113.31895 | 30928 ft | 470 kts | 19° |
| 2026-05-06 19:49 | 38.41091 | -113.29153 | 30927 ft | 470 kts | 19° |
| 2026-05-06 19:50 | 38.47274 | -113.26405 | 30928 ft | 470 kts | 19° |
| 2026-05-06 19:50 | 38.53451 | -113.23654 | 30929 ft | 470 kts | 19° |
| 2026-05-06 19:51 | 38.59630 | -113.20897 | 30927 ft | 470 kts | 19° |
| 2026-05-06 19:51 | 38.65807 | -113.18135 | 30927 ft | 470 kts | 19° |
| 2026-05-06 19:52 | 38.71981 | -113.15365 | 30927 ft | 470 kts | 19° |
| 2026-05-06 19:52 | 38.78159 | -113.12590 | 30926 ft | 470 kts | 19° |
| 2026-05-06 19:53 | 38.84338 | -113.09808 | 30927 ft | 470 kts | 19° |
| 2026-05-06 19:53 | 38.90510 | -113.07025 | 30929 ft | 470 kts | 19° |
| 2026-05-06 19:54 | 38.96683 | -113.04236 | 30928 ft | 470 kts | 19° |
| 2026-05-06 19:54 | 39.02862 | -113.01438 | 30916 ft | 471 kts | 19° |
| 2026-05-06 19:55 | 39.09035 | -112.98633 | 30901 ft | 471 kts | 19° |
| 2026-05-06 19:55 | 39.15212 | -112.95815 | 30885 ft | 471 kts | 19° |
| 2026-05-06 19:56 | 39.21390 | -112.92987 | 30866 ft | 471 kts | 19° |
| 2026-05-06 19:56 | 39.27562 | -112.90154 | 30860 ft | 471 kts | 19° |
| 2026-05-06 19:57 | 39.33736 | -112.87308 | 30849 ft | 471 kts | 19° |
| 2026-05-06 19:57 | 39.39907 | -112.84457 | 30843 ft | 471 kts | 19° |
| 2026-05-06 19:58 | 39.46037 | -112.81614 | 30834 ft | 471 kts | 19° |
| 2026-05-06 19:58 | 39.52204 | -112.78742 | 30824 ft | 471 kts | 19° |
| 2026-05-06 19:59 | 39.58367 | -112.75860 | 30817 ft | 471 kts | 19° |
| 2026-05-06 19:59 | 39.64530 | -112.72970 | 30811 ft | 471 kts | 19° |
| 2026-05-06 20:00 | 39.70688 | -112.70070 | 30805 ft | 471 kts | 19° |
| 2026-05-06 20:00 | 39.76842 | -112.67161 | 30802 ft | 471 kts | 19° |
| 2026-05-06 20:01 | 39.82996 | -112.64241 | 30796 ft | 471 kts | 19° |
| 2026-05-06 20:01 | 39.89145 | -112.61310 | 30787 ft | 471 kts | 20° |